Time;durP1;ratioP1;P1;durP2;ratioP2;P2;SDS_P1;SDS_P2;PMS_P1;PMS_P2;Temp;Humidity;BMP_temperature;BMP_pressure;BME280_temperature;BME280_humidity;BME280_pressure;Samples;Min_cycle;Max_cycle;Signal;HPM_P1;HPM_P2
2022/12/13 00:00:04;;;;;;;48.63;18.00;;;-4.60;99.90;;;;;;5137739;27;20092;-75
2022/12/13 00:02:30;;;;;;;46.83;17.38;;;-4.70;99.90;;;;;;5137568;27;20047;-75
2022/12/13 00:04:56;;;;;;;51.25;18.25;;;-4.60;99.90;;;;;;5084438;27;20070;-75
2022/12/13 00:07:22;;;;;;;42.40;19.23;;;-4.70;99.90;;;;;;5101808;27;20043;-80
2022/12/13 00:09:48;;;;;;;43.35;17.48;;;-4.70;99.90;;;;;;5119456;27;20099;-75
2022/12/13 00:12:13;;;;;;;49.03;18.35;;;-4.70;99.90;;;;;;5118634;27;20099;-82
2022/12/13 00:14:39;;;;;;;50.97;20.40;;;-4.70;99.90;;;;;;5084130;27;20074;-76
2022/12/13 00:17:05;;;;;;;52.13;20.63;;;-4.80;99.90;;;;;;5118700;27;20059;-75
2022/12/13 00:19:31;;;;;;;55.38;20.98;;;-4.80;99.90;;;;;;5101989;27;20045;-75
2022/12/13 00:21:56;;;;;;;54.88;21.73;;;-4.80;99.90;;;;;;5084116;27;20047;-75
2022/12/13 00:24:22;;;;;;;52.45;20.17;;;-4.80;99.90;;;;;;5100764;27;20043;-76
2022/12/13 00:26:48;;;;;;;61.22;21.98;;;-4.80;99.90;;;;;;5118245;27;20047;-75
2022/12/13 00:29:14;;;;;;;52.05;20.02;;;-4.90;99.90;;;;;;5083133;28;20127;-78
2022/12/13 00:31:40;;;;;;;54.55;21.63;;;-4.90;99.90;;;;;;5135280;27;20043;-77
2022/12/13 00:34:06;;;;;;;51.10;19.15;;;-4.90;99.90;;;;;;5136032;27;20051;-76
2022/12/13 00:36:31;;;;;;;58.88;19.63;;;-4.90;99.90;;;;;;5135442;27;20054;-76
2022/12/13 00:39:00;;;;;;;50.42;19.15;;;-4.90;99.90;;;;;;5135297;27;20051;-77
2022/12/13 00:41:36;;;;;;;50.53;18.92;;;-4.90;99.90;;;;;;5116838;27;20076;-76
2022/12/13 00:44:03;;;;;;;49.53;18.23;;;-4.90;99.90;;;;;;5117022;27;20410;-76
2022/12/13 00:46:29;;;;;;;50.95;18.27;;;-5.00;99.90;;;;;;5116664;27;20039;-75
2022/12/13 00:48:57;;;;;;;48.78;18.70;;;-5.00;99.90;;;;;;5116817;27;20047;-76
2022/12/13 00:51:24;;;;;;;51.85;18.23;;;-4.90;99.90;;;;;;5134608;27;20111;-83
2022/12/13 00:53:50;;;;;;;53.30;20.65;;;-5.00;99.90;;;;;;5116614;27;20467;-78
2022/12/13 00:56:20;;;;;;;46.50;17.17;;;-5.00;99.90;;;;;;5099695;28;20039;-76
2022/12/13 00:58:48;;;;;;;48.70;17.15;;;-5.00;99.90;;;;;;5117037;27;20281;-76
2022/12/13 01:01:15;;;;;;;40.65;15.57;;;-5.10;99.90;;;;;;5116599;27;20042;-77
2022/12/13 01:03:42;;;;;;;45.65;16.23;;;-5.00;99.90;;;;;;5116430;27;20043;-76
2022/12/13 01:06:12;;;;;;;45.05;17.30;;;-5.10;99.90;;;;;;5134755;27;20372;-77
2022/12/13 01:08:39;;;;;;;47.67;18.08;;;-5.10;99.90;;;;;;5134908;27;20058;-76
2022/12/13 01:11:05;;;;;;;54.15;18.88;;;-5.10;99.90;;;;;;5116379;28;20470;-78
2022/12/13 01:13:31;;;;;;;66.00;23.73;;;-5.10;99.90;;;;;;5135298;28;20201;-76
2022/12/13 01:15:57;;;;;;;60.13;21.83;;;-5.10;99.90;;;;;;5115973;28;20092;-76
2022/12/13 01:18:23;;;;;;;64.13;22.13;;;-5.10;99.90;;;;;;5134696;28;20048;-76
2022/12/13 01:21:11;;;;;;;59.30;21.48;;;-5.10;99.90;;;;;;5116396;28;20038;-76
2022/12/13 01:23:38;;;;;;;52.17;19.42;;;-5.10;99.90;;;;;;5117096;28;20076;-77
2022/12/13 01:26:06;;;;;;;52.40;18.45;;;-5.20;99.90;;;;;;5116061;28;20440;-76
2022/12/13 01:28:32;;;;;;;51.20;18.67;;;-5.20;99.90;;;;;;5134682;28;20074;-76
2022/12/13 01:31:01;;;;;;;47.05;17.55;;;-5.20;99.90;;;;;;5116835;28;20058;-75
2022/12/13 01:33:29;;;;;;;47.65;17.73;;;-5.20;99.90;;;;;;5117316;28;20134;-77
2022/12/13 01:35:55;;;;;;;58.72;18.13;;;-5.20;99.90;;;;;;5117045;28;20091;-76
2022/12/13 01:38:22;;;;;;;41.83;16.98;;;-5.20;99.90;;;;;;5115966;28;20054;-79
2022/12/13 01:40:58;;;;;;;45.28;16.30;;;-5.10;99.90;;;;;;5116649;27;20130;-77
2022/12/13 01:43:36;;;;;;;50.55;17.73;;;-5.20;99.90;;;;;;5120853;27;20043;-77
2022/12/13 01:46:03;;;;;;;47.42;18.08;;;-5.20;99.90;;;;;;5139209;27;20055;-76
2022/12/13 01:48:33;;;;;;;57.83;18.90;;;-5.20;99.90;;;;;;5104266;27;20047;-77
2022/12/13 01:51:02;;;;;;;56.35;20.48;;;-5.20;99.90;;;;;;5124732;27;20050;-76
2022/12/13 01:53:32;;;;;;;59.05;19.83;;;-5.20;99.90;;;;;;5147504;27;20126;-83
2022/12/13 01:56:04;;;;;;;49.45;18.95;;;-5.20;99.90;;;;;;5155669;27;20038;-75
2022/12/13 01:58:30;;;;;;;43.13;17.17;;;-5.20;99.90;;;;;;5112515;27;20107;-77
2022/12/13 02:00:59;;;;;;;41.40;16.48;;;-5.20;99.90;;;;;;5139971;27;20043;-74
2022/12/13 02:03:25;;;;;;;42.13;16.67;;;-5.20;99.90;;;;;;5121272;27;20429;-76
2022/12/13 02:06:03;;;;;;;44.10;16.50;;;-5.20;99.90;;;;;;5087779;27;20043;-75
2022/12/13 02:08:30;;;;;;;45.28;16.02;;;-5.30;99.90;;;;;;5120202;27;20099;-83
2022/12/13 02:10:57;;;;;;;50.05;17.02;;;-5.30;99.90;;;;;;5120247;27;20043;-76
2022/12/13 02:13:23;;;;;;;40.50;15.52;;;-5.30;99.90;;;;;;5102915;27;20047;-75
2022/12/13 02:15:54;;;;;;;44.65;16.10;;;-5.30;99.90;;;;;;5115594;28;20181;-77
2022/12/13 02:18:41;;;;;;;43.15;15.88;;;-5.30;99.90;;;;;;5116760;28;20475;-76
2022/12/13 02:21:51;;;;;;;40.00;14.90;;;-5.30;99.90;;;;;;5116427;28;20055;-76
2022/12/13 02:24:41;;;;;;;40.17;15.07;;;-5.30;99.90;;;;;;5087115;28;20051;-76
2022/12/13 02:27:32;;;;;;;45.00;15.75;;;-5.30;99.90;;;;;;5116730;28;20048;-76
2022/12/13 02:30:18;;;;;;;44.90;13.98;;;-5.30;99.90;;;;;;5099073;28;20070;-76
2022/12/13 02:32:53;;;;;;;42.08;15.95;;;-5.40;99.90;;;;;;5115928;28;20067;-79
2022/12/13 02:36:00;;;;;;;39.10;15.48;;;-5.40;99.90;;;;;;5119624;28;20070;-77
2022/12/13 02:38:58;;;;;;;41.10;14.65;;;-5.40;99.90;;;;;;5120003;28;20040;-76
2022/12/13 02:41:39;;;;;;;43.97;15.50;;;-5.50;99.90;;;;;;5090833;28;20052;-76
2022/12/13 02:44:11;;;;;;;45.08;16.52;;;-5.40;99.90;;;;;;5116626;28;20051;-76
2022/12/13 02:46:47;;;;;;;46.53;16.45;;;-5.40;99.90;;;;;;5098168;28;20396;-75
2022/12/13 02:49:15;;;;;;;42.92;15.68;;;-5.30;99.90;;;;;;5114688;28;20051;-75
2022/12/13 02:51:41;;;;;;;;;;;-5.40;99.90;;;;;;5098329;28;20052;-74
2022/12/13 02:54:07;;;;;;;42.72;15.00;;;-5.40;99.90;;;;;;5113832;28;20006;-76
2022/12/13 02:56:33;;;;;;;41.50;15.50;;;-5.40;99.90;;;;;;5115316;28;20046;-75
2022/12/13 02:59:02;;;;;;;40.70;16.00;;;-5.40;99.90;;;;;;5114838;28;20097;-75
2022/12/13 03:01:35;;;;;;;41.97;16.38;;;-5.40;99.90;;;;;;5117369;28;20077;-77
2022/12/13 03:04:18;;;;;;;43.28;16.30;;;-5.50;99.90;;;;;;5117313;28;20055;-75
2022/12/13 03:07:14;;;;;;;43.03;16.45;;;-5.50;99.90;;;;;;5116606;28;20047;-77
2022/12/13 03:10:05;;;;;;;42.55;15.82;;;-5.40;99.90;;;;;;5114781;28;20040;-77
2022/12/13 03:15:58;;;;;;;42.25;16.23;;;-5.40;99.90;;;;;;5099432;28;20084;-75
2022/12/13 03:18:27;;;;;;;44.65;16.95;;;-5.50;99.90;;;;;;5096783;28;20051;-75
2022/12/13 03:20:57;;;;;;;51.05;17.02;;;-5.50;99.90;;;;;;5114909;28;20080;-76
2022/12/13 03:23:23;;;;;;;40.65;16.38;;;-5.50;99.90;;;;;;5115311;28;20093;-76
2022/12/13 03:25:52;;;;;;;40.33;16.73;;;-5.50;99.90;;;;;;5097761;28;20425;-76
2022/12/13 03:28:18;;;;;;;49.25;15.32;;;-5.50;99.90;;;;;;5097155;28;20289;-76
2022/12/13 03:30:44;;;;;;;43.38;16.77;;;-5.60;99.90;;;;;;5113906;28;20101;-75
2022/12/13 03:33:10;;;;;;;42.15;16.70;;;-5.50;99.90;;;;;;5113459;28;20040;-76
2022/12/13 03:35:41;;;;;;;43.33;14.88;;;-5.60;99.90;;;;;;5117425;28;20082;-77
2022/12/13 03:38:07;;;;;;;40.00;14.80;;;-5.60;99.90;;;;;;5097285;28;20039;-76
2022/12/13 03:40:34;;;;;;;39.13;15.57;;;-5.60;99.90;;;;;;5114876;28;20108;-76
2022/12/13 03:43:00;;;;;;;45.45;16.13;;;-5.60;99.90;;;;;;5097221;28;20138;-75
2022/12/13 03:45:26;;;;;;;40.87;16.20;;;-5.70;99.90;;;;;;5114572;28;20049;-76
2022/12/13 03:47:52;;;;;;;42.40;16.23;;;-5.70;99.90;;;;;;5097564;28;20388;-77
2022/12/13 03:50:18;;;;;;;37.80;15.02;;;-5.70;99.90;;;;;;5115343;28;20475;-77
2022/12/13 03:52:46;;;;;;;39.40;14.98;;;-5.70;99.90;;;;;;5114598;28;20157;-77
2022/12/13 03:55:12;;;;;;;42.53;16.55;;;-5.70;99.90;;;;;;5080712;28;20138;-78
2022/12/13 03:57:38;;;;;;;38.03;14.63;;;-5.70;99.90;;;;;;5112182;28;20127;-77
2022/12/13 04:00:05;;;;;;;42.40;16.52;;;-5.70;99.90;;;;;;5113075;28;20443;-77
2022/12/13 04:02:31;;;;;;;57.53;20.13;;;-5.70;99.90;;;;;;5113162;28;20039;-76
2022/12/13 04:04:56;;;;;;;56.92;20.42;;;-5.80;99.90;;;;;;5096186;28;20047;-76
2022/12/13 04:07:22;;;;;;;51.55;18.65;;;-5.80;99.90;;;;;;5079319;28;20417;-78
2022/12/13 04:09:48;;;;;;;47.22;17.05;;;-5.80;99.90;;;;;;5114448;28;20039;-77
2022/12/13 04:15:15;;;;;;;44.83;16.40;;;-5.80;99.90;;;;;;5053939;28;20048;-78
2022/12/13 04:17:40;;;;;;;45.88;16.55;;;-5.80;99.90;;;;;;5104451;28;20177;-77
2022/12/13 04:20:06;;;;;;;45.00;15.57;;;-5.70;99.90;;;;;;5113767;28;20048;-77
2022/12/13 04:22:32;;;;;;;46.92;15.98;;;-5.80;99.90;;;;;;5112501;28;20138;-78
2022/12/13 04:24:58;;;;;;;45.08;16.80;;;-5.80;99.90;;;;;;5112121;28;20122;-77
2022/12/13 04:27:24;;;;;;;36.13;15.43;;;-5.80;99.90;;;;;;5114420;28;20104;-76
2022/12/13 04:29:49;;;;;;;45.67;15.73;;;-5.90;99.90;;;;;;5112481;28;20650;-78
2022/12/13 04:32:15;;;;;;;44.13;15.32;;;-5.90;99.90;;;;;;5112869;28;20044;-77
2022/12/13 04:34:41;;;;;;;47.35;15.68;;;-5.90;99.90;;;;;;5096488;28;20460;-77
2022/12/13 04:37:06;;;;;;;39.78;15.38;;;-5.90;99.90;;;;;;5113963;28;20058;-78
2022/12/13 04:39:32;;;;;;;40.22;15.40;;;-5.90;99.90;;;;;;5113794;28;20058;-76
2022/12/13 04:41:58;;;;;;;43.67;15.77;;;-5.90;99.90;;;;;;5112444;28;20100;-77
2022/12/13 04:44:23;;;;;;;45.15;16.33;;;-5.90;99.90;;;;;;5113890;28;20044;-76
2022/12/13 04:46:49;;;;;;;41.85;16.48;;;-5.90;99.90;;;;;;5113535;28;20055;-77
2022/12/13 04:49:15;;;;;;;42.20;16.02;;;-5.90;99.90;;;;;;5112068;28;20043;-77
2022/12/13 04:51:41;;;;;;;38.95;16.13;;;-5.90;99.90;;;;;;5113806;28;20043;-77
2022/12/13 04:54:06;;;;;;;47.90;17.33;;;-5.90;99.90;;;;;;5095297;28;20407;-76
2022/12/13 04:56:32;;;;;;;39.53;15.32;;;-6.00;99.90;;;;;;5078338;28;20184;-76
2022/12/13 04:58:58;;;;;;;43.45;14.82;;;-5.90;99.90;;;;;;5095132;28;20061;-77
2022/12/13 05:01:24;;;;;;;46.83;16.38;;;-5.90;99.90;;;;;;5113261;28;20495;-77
2022/12/13 05:03:49;;;;;;;46.63;15.95;;;-6.00;99.90;;;;;;5111902;28;20040;-82
2022/12/13 05:06:16;;;;;;;40.00;15.38;;;-6.00;99.90;;;;;;5111712;28;20043;-78
2022/12/13 05:08:41;;;;;;;46.58;16.35;;;-6.00;99.90;;;;;;5112456;28;20103;-78
2022/12/13 05:11:09;;;;;;;41.42;15.57;;;-6.00;99.90;;;;;;5112130;28;20075;-77
2022/12/13 05:13:34;;;;;;;53.25;16.30;;;-6.00;99.90;;;;;;5094939;28;20130;-78
2022/12/13 05:16:04;;;;;;;44.50;16.95;;;-6.00;99.90;;;;;;5125672;27;20147;-78
2022/12/13 05:18:30;;;;;;;53.17;17.20;;;-6.10;99.90;;;;;;5115593;28;20122;-77
2022/12/13 05:20:56;;;;;;;49.58;17.55;;;-6.10;99.90;;;;;;5115524;28;20045;-76
2022/12/13 05:23:23;;;;;;;43.15;16.65;;;-6.10;99.90;;;;;;5115274;28;20134;-77
2022/12/13 05:25:52;;;;;;;49.75;17.55;;;-6.20;99.90;;;;;;5115251;28;20122;-76
2022/12/13 05:28:18;;;;;;;38.75;15.48;;;-6.10;99.90;;;;;;5134199;28;20122;-76
2022/12/13 05:30:44;;;;;;;42.33;15.95;;;-6.10;99.90;;;;;;5115677;28;20546;-80
2022/12/13 05:33:10;;;;;;;55.13;16.85;;;-6.10;99.90;;;;;;5134169;28;20089;-76
2022/12/13 05:35:36;;;;;;;42.55;17.10;;;-6.10;99.90;;;;;;5133546;28;20043;-76
2022/12/13 05:38:02;;;;;;;48.33;17.98;;;-6.10;99.90;;;;;;5115340;28;20042;-76
2022/12/13 05:40:30;;;;;;;51.97;17.75;;;-6.10;99.90;;;;;;5134035;28;20043;-78
2022/12/13 05:42:55;;;;;;;45.53;16.65;;;-6.10;99.90;;;;;;5115344;28;20074;-78
2022/12/13 05:45:22;;;;;;;47.15;16.77;;;-6.10;99.90;;;;;;5134360;28;20494;-78
2022/12/13 05:47:48;;;;;;;56.05;18.95;;;-6.10;99.90;;;;;;5100009;28;20130;-78
2022/12/13 05:50:15;;;;;;;53.03;18.30;;;-6.10;99.90;;;;;;5099587;28;20538;-78
2022/12/13 05:52:45;;;;;;;50.10;18.23;;;-6.10;99.90;;;;;;5100361;28;20069;-77
2022/12/13 05:55:11;;;;;;;53.83;16.75;;;-6.10;99.90;;;;;;5117661;28;20115;-77
2022/12/13 05:57:37;;;;;;;49.47;17.48;;;-6.10;99.90;;;;;;5119683;28;20066;-77
2022/12/13 06:00:05;;;;;;;50.50;18.23;;;-6.10;99.90;;;;;;5126232;28;20035;-78
2022/12/13 06:02:31;;;;;;;64.97;18.73;;;-6.10;99.90;;;;;;5125525;28;20042;-77
2022/12/13 06:04:56;;;;;;;49.65;18.33;;;-6.10;99.90;;;;;;5108713;28;20043;-75
2022/12/13 06:07:22;;;;;;;45.38;17.23;;;-6.10;99.90;;;;;;5124075;28;20036;-78
2022/12/13 06:09:48;;;;;;;54.53;18.50;;;-6.10;99.90;;;;;;5122477;28;20050;-76
2022/12/13 06:12:15;;;;;;;49.15;18.35;;;-6.10;99.90;;;;;;5104241;28;20054;-78
2022/12/13 06:14:41;;;;;;;54.20;18.35;;;-6.10;99.90;;;;;;5105883;28;20127;-77
2022/12/13 06:17:06;;;;;;;51.20;17.90;;;-6.10;99.90;;;;;;5117571;28;20142;-77
2022/12/13 06:19:32;;;;;;;49.55;17.30;;;-6.10;99.90;;;;;;5118312;28;20056;-77
2022/12/13 06:21:58;;;;;;;46.90;16.88;;;-6.10;99.90;;;;;;5119122;28;20054;-77
2022/12/13 06:24:26;;;;;;;51.65;17.92;;;-6.10;99.90;;;;;;5117214;28;20048;-77
2022/12/13 06:26:52;;;;;;;44.15;16.80;;;-6.10;99.90;;;;;;5098457;28;20471;-76
2022/12/13 06:29:20;;;;;;;54.00;18.63;;;-6.10;99.90;;;;;;5102181;28;20083;-78
2022/12/13 06:31:46;;;;;;;54.35;19.48;;;-6.00;99.90;;;;;;5120944;28;20078;-79
2022/12/13 06:34:12;;;;;;;56.53;22.05;;;-6.10;99.90;;;;;;5121161;28;20083;-79
2022/12/13 06:36:38;;;;;;;71.28;24.85;;;-6.10;99.90;;;;;;5119800;28;20098;-80
2022/12/13 06:39:05;;;;;;;62.75;24.35;;;-6.10;99.90;;;;;;5119251;28;20490;-79
2022/12/13 06:41:32;;;;;;;64.40;21.55;;;-6.10;99.90;;;;;;5119412;28;20047;-79
2022/12/13 06:43:58;;;;;;;55.10;21.13;;;-6.10;99.90;;;;;;5118156;28;20058;-78
2022/12/13 06:46:24;;;;;;;55.85;19.98;;;-6.10;99.90;;;;;;5118807;28;20047;-78
2022/12/13 06:48:51;;;;;;;64.25;20.50;;;-6.10;99.90;;;;;;5116654;28;20140;-78
2022/12/13 06:51:17;;;;;;;54.17;19.23;;;-6.10;99.90;;;;;;5099524;28;20039;-78
2022/12/13 06:53:43;;;;;;;52.70;19.90;;;-6.10;99.90;;;;;;5115563;28;20050;-78
2022/12/13 06:56:11;;;;;;;57.28;19.98;;;-6.00;99.90;;;;;;5115943;28;20051;-78
2022/12/13 06:58:37;;;;;;;51.67;19.52;;;-6.10;99.90;;;;;;5116552;28;20053;-80
2022/12/13 07:01:10;;;;;;;50.22;19.30;;;-6.10;99.90;;;;;;5116959;28;20082;-79
2022/12/13 07:03:37;;;;;;;53.65;19.05;;;-6.10;99.90;;;;;;5119664;28;20138;-79
2022/12/13 07:06:12;;;;;;;53.37;20.87;;;-6.00;99.90;;;;;;5118438;28;20507;-79
2022/12/13 07:08:39;;;;;;;56.67;20.42;;;-6.00;99.90;;;;;;5120487;28;20281;-79
2022/12/13 07:11:05;;;;;;;62.35;22.63;;;-6.00;99.90;;;;;;5121386;28;20051;-79
2022/12/13 07:13:32;;;;;;;61.78;21.55;;;-6.00;99.90;;;;;;5102614;28;20127;-78
2022/12/13 07:15:59;;;;;;;77.28;27.25;;;-6.00;99.90;;;;;;5118053;28;20142;-78
2022/12/13 07:18:25;;;;;;;117.72;42.03;;;-6.00;99.90;;;;;;5119818;28;20058;-77
2022/12/13 07:20:51;;;;;;;151.95;50.25;;;-6.00;99.90;;;;;;5119492;28;20069;-78
2022/12/13 07:23:17;;;;;;;99.93;39.70;;;-6.00;99.90;;;;;;5123376;28;20047;-78
2022/12/13 07:25:53;;;;;;;59.30;21.15;;;-5.90;99.90;;;;;;5125152;28;20226;-79
2022/12/13 07:28:20;;;;;;;58.00;19.15;;;-5.90;99.90;;;;;;5124957;28;20044;-79
2022/12/13 07:30:47;;;;;;;58.22;20.23;;;-5.90;99.90;;;;;;5102395;28;20047;-78
2022/12/13 07:33:13;;;;;;;55.15;20.05;;;-5.90;99.90;;;;;;5117644;28;20044;-77
2022/12/13 07:35:40;;;;;;;54.95;19.65;;;-5.90;99.90;;;;;;5117255;28;20078;-78
2022/12/13 07:38:06;;;;;;;61.53;20.40;;;-5.80;99.90;;;;;;5116896;28;20051;-78
2022/12/13 07:40:33;;;;;;;51.35;19.60;;;-5.80;99.90;;;;;;5098255;28;20047;-78
2022/12/13 07:42:59;;;;;;;60.40;19.90;;;-5.80;99.90;;;;;;5115041;28;20047;-77
2022/12/13 07:45:25;;;;;;;59.78;20.70;;;-5.80;99.90;;;;;;5115313;28;20138;-77
2022/12/13 07:47:51;;;;;;;62.80;20.88;;;-5.60;99.90;;;;;;5115678;28;20105;-77
2022/12/13 07:50:19;;;;;;;60.28;21.20;;;-5.70;99.90;;;;;;5118938;28;20092;-77
2022/12/13 07:52:48;;;;;;;61.78;19.85;;;-5.70;99.90;;;;;;5116457;28;20052;-81
2022/12/13 07:55:15;;;;;;;59.50;20.30;;;-5.70;99.90;;;;;;5099782;28;20048;-77
2022/12/13 07:57:41;;;;;;;60.20;19.85;;;-5.70;99.90;;;;;;5116187;28;20479;-79
2022/12/13 08:00:07;;;;;;;60.85;20.63;;;-5.70;99.90;;;;;;5116189;28;20043;-77
2022/12/13 08:02:33;;;;;;;64.47;21.77;;;-5.70;99.90;;;;;;5116578;28;20087;-77
2022/12/13 08:04:59;;;;;;;63.47;20.73;;;-5.70;99.90;;;;;;5119902;28;20052;-78
2022/12/13 08:07:24;;;;;;;63.47;22.00;;;-5.70;99.90;;;;;;5117101;28;20116;-79
2022/12/13 08:09:50;;;;;;;57.35;19.55;;;-5.70;99.90;;;;;;5097761;28;20080;-78
2022/12/13 08:12:16;;;;;;;58.05;20.27;;;-5.60;99.90;;;;;;5116331;28;20043;-78
2022/12/13 08:14:42;;;;;;;66.35;21.90;;;-5.60;99.90;;;;;;5115144;28;20057;-79
2022/12/13 08:17:07;;;;;;;73.18;22.13;;;-5.50;99.90;;;;;;5133480;27;20051;-79
2022/12/13 08:19:33;;;;;;;65.10;21.30;;;-5.50;99.90;;;;;;5099527;27;20065;-79
2022/12/13 08:21:59;;;;;;;63.33;21.95;;;-5.50;99.90;;;;;;5134510;27;20039;-80
2022/12/13 08:24:27;;;;;;;65.05;23.27;;;-5.40;99.90;;;;;;5116243;27;20050;-79
2022/12/13 08:26:53;;;;;;;62.42;22.80;;;-5.40;99.90;;;;;;5099436;27;20064;-79
2022/12/13 08:29:19;;;;;;;69.22;23.17;;;-5.40;99.90;;;;;;5115928;27;20086;-79
2022/12/13 08:31:45;;;;;;;71.15;23.05;;;-5.30;99.90;;;;;;5099888;27;20078;-80
2022/12/13 08:34:11;;;;;;;63.83;21.70;;;-5.20;99.90;;;;;;5115948;28;20073;-79
2022/12/13 08:36:36;;;;;;;64.03;22.83;;;-5.10;99.90;;;;;;5134176;27;20059;-79
2022/12/13 08:39:03;;;;;;;71.97;22.92;;;-5.20;99.90;;;;;;5098911;27;20099;-79
2022/12/13 08:41:29;;;;;;;80.60;24.75;;;-5.20;99.90;;;;;;5116066;27;20054;-80
2022/12/13 08:43:55;;;;;;;79.38;25.40;;;-5.10;99.90;;;;;;5115846;27;20050;-80
2022/12/13 08:46:21;;;;;;;76.70;24.10;;;-5.00;99.90;;;;;;5116486;27;20039;-79
2022/12/13 08:48:46;;;;;;;72.50;24.10;;;-5.00;99.90;;;;;;5115695;27;20446;-79
2022/12/13 08:51:17;;;;;;;77.53;25.13;;;-4.90;99.90;;;;;;5133010;27;20047;-79
2022/12/13 08:53:43;;;;;;;72.40;24.02;;;-4.90;99.90;;;;;;5115530;27;20050;-80
2022/12/13 08:56:11;;;;;;;74.00;24.52;;;-4.80;99.90;;;;;;5133688;27;20479;-78
2022/12/13 08:58:38;;;;;;;72.65;23.35;;;-4.70;99.90;;;;;;5115475;27;20095;-78
2022/12/13 09:01:10;;;;;;;63.35;24.20;;;-4.70;99.90;;;;;;5115159;27;20047;-77
2022/12/13 09:03:36;;;;;;;60.78;23.13;;;-4.60;99.90;;;;;;5115352;27;20051;-77
2022/12/13 09:06:11;;;;;;;76.75;25.02;;;-4.60;99.90;;;;;;5133733;27;20075;-77
2022/12/13 09:08:39;;;;;;;69.20;24.17;;;-4.50;99.90;;;;;;5133530;27;20136;-77
2022/12/13 09:11:05;;;;;;;70.47;23.08;;;-4.50;99.90;;;;;;5115260;27;20100;-77
2022/12/13 09:13:33;;;;;;;77.70;24.58;;;-4.40;99.90;;;;;;5115534;28;20047;-77
2022/12/13 09:16:04;;;;;;;67.72;24.42;;;-4.30;99.90;;;;;;5133123;27;20062;-77
2022/12/13 09:18:30;;;;;;;71.95;26.52;;;-4.30;99.90;;;;;;5098787;28;20043;-77
2022/12/13 09:20:56;;;;;;;63.45;23.05;;;-4.30;99.90;;;;;;5065556;28;20043;-76
2022/12/13 09:23:22;;;;;;;69.68;24.33;;;-4.20;99.90;;;;;;5115254;28;20047;-79
2022/12/13 09:25:55;;;;;;;63.38;23.23;;;-4.00;99.90;;;;;;5115024;28;20070;-77
2022/12/13 09:28:22;;;;;;;65.88;23.92;;;-4.10;99.90;;;;;;5098628;28;20043;-79
2022/12/13 09:30:48;;;;;;;66.55;23.77;;;-4.00;99.90;;;;;;5116028;28;20085;-78
2022/12/13 09:33:14;;;;;;;69.00;23.97;;;-4.00;99.90;;;;;;5133443;28;20054;-77
2022/12/13 09:35:40;;;;;;;67.88;25.02;;;-3.90;99.90;;;;;;5098031;28;20795;-78
2022/12/13 09:38:06;;;;;;;63.20;23.38;;;-3.90;99.90;;;;;;5133315;28;20126;-77
2022/12/13 09:40:33;;;;;;;68.00;24.95;;;-3.80;99.90;;;;;;5115603;28;20043;-78
2022/12/13 09:43:00;;;;;;;73.95;25.20;;;-3.80;99.90;;;;;;5115424;28;20043;-78
2022/12/13 09:45:28;;;;;;;76.13;26.45;;;-3.70;99.90;;;;;;5115239;28;20399;-81
2022/12/13 09:47:55;;;;;;;70.00;25.75;;;-3.60;99.90;;;;;;5098231;28;20039;-78
2022/12/13 09:50:29;;;;;;;71.35;27.05;;;-3.60;99.90;;;;;;5133792;28;20123;-78
2022/12/13 09:52:56;;;;;;;78.10;27.15;;;-3.60;99.90;;;;;;5115595;28;20054;-77
2022/12/13 09:55:28;;;;;;;71.00;24.48;;;-3.50;99.90;;;;;;5098227;28;20226;-76
2022/12/13 09:57:54;;;;;;;76.35;25.88;;;-3.50;99.90;;;;;;5115551;28;20050;-76
2022/12/13 10:00:22;;;;;;;66.07;24.75;;;-3.40;99.90;;;;;;5098521;28;20132;-77
2022/12/13 10:02:56;;;;;;;72.75;25.85;;;-3.40;99.90;;;;;;5100843;27;20051;-77
2022/12/13 10:05:36;;;;;;;75.45;26.08;;;-3.30;99.90;;;;;;5137740;27;20135;-77
2022/12/13 10:08:21;;;;;;;66.68;24.58;;;-3.30;99.90;;;;;;5137598;27;20123;-76
2022/12/13 10:10:54;;;;;;;62.72;24.27;;;-3.20;99.90;;;;;;5138020;27;20189;-77
2022/12/13 10:13:35;;;;;;;72.03;24.63;;;-3.20;99.90;;;;;;5119289;27;20046;-76
2022/12/13 10:16:06;;;;;;;70.45;24.35;;;-3.10;99.90;;;;;;5119068;27;20043;-76
2022/12/13 10:18:35;;;;;;;69.15;25.92;;;-3.00;99.90;;;;;;5084332;27;20113;-78
2022/12/13 10:21:20;;;;;;;77.80;27.88;;;-2.90;99.90;;;;;;5118417;27;20229;-77
2022/12/13 10:23:52;;;;;;;78.60;30.52;;;-2.90;99.90;;;;;;5137311;27;20035;-76
2022/12/13 10:26:18;;;;;;;85.47;33.63;;;-2.80;99.90;;;;;;5136742;27;20053;-76
2022/12/13 10:28:44;;;;;;;88.68;35.60;;;-2.90;99.90;;;;;;5136443;27;20405;-76
2022/12/13 10:31:18;;;;;;;90.72;34.92;;;-2.80;99.90;;;;;;5136924;27;20193;-76
2022/12/13 10:33:54;;;;;;;85.28;31.95;;;-2.70;99.90;;;;;;5101982;27;20047;-75
2022/12/13 10:36:32;;;;;;;72.15;28.75;;;-2.70;99.90;;;;;;5118249;27;20122;-76
2022/12/13 10:38:58;;;;;;;70.35;26.05;;;-2.60;99.90;;;;;;5136812;27;20150;-75
2022/12/13 10:41:37;;;;;;;72.40;27.02;;;-2.60;99.90;;;;;;5136548;27;20043;-75
2022/12/13 10:44:15;;;;;;;64.28;24.85;;;-2.50;99.90;;;;;;5137100;27;20043;-74
2022/12/13 10:47:04;;;;;;;72.35;25.33;;;-2.50;99.90;;;;;;5136897;27;20043;-76
2022/12/13 10:49:57;;;;;;;67.07;25.23;;;-2.50;99.90;;;;;;5101536;27;20046;-74
2022/12/13 10:52:29;;;;;;;71.18;25.05;;;-2.40;99.90;;;;;;5117183;27;20058;-76
2022/12/13 10:55:03;;;;;;;78.35;25.67;;;-2.30;99.90;;;;;;5136699;27;20367;-75
2022/12/13 10:57:30;;;;;;;72.10;24.88;;;-2.30;99.90;;;;;;5102442;27;20047;-76
2022/12/13 10:59:55;;;;;;;69.53;27.90;;;-2.20;99.90;;;;;;5117677;27;20469;-76
2022/12/13 11:02:33;;;;;;;69.53;26.70;;;-2.20;99.90;;;;;;5100913;27;20100;-76
2022/12/13 11:05:21;;;;;;;72.57;26.58;;;-2.00;99.90;;;;;;5117425;27;20103;-75
2022/12/13 11:07:47;;;;;;;78.63;26.98;;;-2.00;99.90;;;;;;5100674;27;20196;-77
2022/12/13 11:10:19;;;;;;;68.20;26.17;;;-2.10;99.90;;;;;;5117527;27;20571;-75
2022/12/13 11:12:45;;;;;;;72.95;27.35;;;-2.00;99.90;;;;;;5136343;27;20042;-76
2022/12/13 11:15:23;;;;;;;73.40;27.08;;;-2.00;99.90;;;;;;5116948;27;20074;-75
2022/12/13 11:17:52;;;;;;;72.88;25.75;;;-2.00;99.90;;;;;;5135991;27;20112;-75
2022/12/13 11:20:37;;;;;;;68.45;26.77;;;-2.00;99.90;;;;;;5135767;27;20093;-75
2022/12/13 11:23:09;;;;;;;70.32;25.52;;;-1.90;99.90;;;;;;5117984;27;20047;-74
2022/12/13 11:25:40;;;;;;;64.25;25.77;;;-1.70;99.90;;;;;;5117455;27;20049;-74
2022/12/13 11:28:19;;;;;;;69.72;26.73;;;-1.90;99.90;;;;;;5135755;27;20043;-73
2022/12/13 11:31:07;;;;;;;70.75;25.40;;;-1.80;99.90;;;;;;5117413;27;20113;-75
2022/12/13 11:33:58;;;;;;;70.97;26.55;;;-1.80;99.90;;;;;;5135491;27;20487;-75
2022/12/13 11:37:01;;;;;;;64.05;24.30;;;-1.70;99.90;;;;;;5135420;27;20093;-75
2022/12/13 11:39:35;;;;;;;67.50;24.40;;;-1.70;99.90;;;;;;5116755;27;20153;-74
2022/12/13 11:42:19;;;;;;;71.57;25.92;;;-1.70;99.90;;;;;;5134888;27;20114;-75
2022/12/13 11:45:22;;;;;;;65.30;24.13;;;-1.60;99.90;;;;;;5117243;27;20062;-74
2022/12/13 11:48:06;;;;;;;70.22;25.17;;;-1.60;99.90;;;;;;5100417;27;20108;-74
2022/12/13 11:50:45;;;;;;;72.15;26.58;;;-1.60;99.90;;;;;;5135206;27;20035;-75
2022/12/13 11:53:17;;;;;;;73.25;27.63;;;-1.50;99.90;;;;;;5135826;27;20097;-75
2022/12/13 11:56:14;;;;;;;75.20;27.63;;;-1.50;99.90;;;;;;5116843;27;20460;-79
2022/12/13 11:58:52;;;;;;;66.65;26.10;;;-1.40;99.90;;;;;;5135535;27;20045;-75
2022/12/13 12:01:28;;;;;;;72.93;26.70;;;-1.50;99.90;;;;;;5135040;27;20082;-77
2022/12/13 12:04:20;;;;;;;66.32;26.25;;;-1.40;99.90;;;;;;5116667;27;20050;-77
2022/12/13 12:06:53;;;;;;;70.50;25.42;;;-1.50;99.90;;;;;;5115539;27;20055;-75
2022/12/13 12:09:22;;;;;;;64.40;24.55;;;-1.40;99.90;;;;;;5099619;27;20058;-74
2022/12/13 12:11:56;;;;;;;68.40;26.10;;;-1.40;99.90;;;;;;5099413;27;20103;-74
2022/12/13 12:14:44;;;;;;;67.47;26.73;;;-1.30;99.90;;;;;;5117298;27;20433;-76
2022/12/13 12:17:18;;;;;;;63.17;26.38;;;-1.30;99.90;;;;;;5116239;27;20472;-75
2022/12/13 12:19:47;;;;;;;73.28;26.00;;;-1.20;99.90;;;;;;5135352;27;20118;-75
2022/12/13 12:22:28;;;;;;;64.38;24.17;;;-1.30;99.90;;;;;;5099147;27;20047;-76
2022/12/13 12:25:10;;;;;;;65.93;26.25;;;-1.30;99.90;;;;;;5134259;27;20055;-77
2022/12/13 12:28:07;;;;;;;66.03;26.40;;;-1.30;99.90;;;;;;5116793;27;20140;-76
2022/12/13 12:30:38;;;;;;;;;;;-1.20;99.90;;;;;;5116774;27;20050;-75
2022/12/13 12:33:10;;;;;;;63.28;24.20;;;-1.20;99.90;;;;;;5116155;27;19927;-75
2022/12/13 12:35:57;;;;;;;71.45;26.33;;;-1.20;99.90;;;;;;5116541;27;20433;-75
2022/12/13 12:38:29;;;;;;;;;;;-1.20;99.90;;;;;;5134533;27;20164;-76
2022/12/13 12:41:27;;;;;;;72.50;25.25;;;-1.10;99.90;;;;;;5134129;27;20328;-75
2022/12/13 12:44:03;;;;;;;72.70;28.35;;;-1.20;99.90;;;;;;5134881;27;20070;-75
2022/12/13 12:47:06;;;;;;;74.28;27.20;;;-1.20;99.90;;;;;;5099217;27;20051;-75
2022/12/13 12:49:39;;;;;;;72.45;25.65;;;-1.20;99.90;;;;;;5134126;27;20126;-75